Versailles, IN

1:01 PM EDT on October 21, 2014 (GMT -0400)
KINDILLS2 | Change Station
CLOSE
Current Station
Personal Weather Station
Location: Dillsboro, IN
Elevation: 840 ft
Nearby Weather Stations

Elev 840 ft 39.00 °N, 85.02 °W | Updated 3 seconds ago

Mostly Cloudy
Mostly Cloudy
55.0 °F
Feels Like 55.0 °F
N
10.0
Wind Variable Wind from WNW
Gusts 15.0 mph

Today
High -- | Low -- °F
--% Chance of Precip.
Yesterday
High -- | Low -- °F
Precip. -- in
7:56 AM 6:53 PM
Waning Crescent, 5% visible
Pressure 30.03 in
Visibility 10.0 miles
Clouds Mostly Cloudy 4500 ft
Overcast 5000 ft
Dew Point 45 °F
Humidity 69%
Rainfall 0.00 in
Snow Depth Not available.
UV 2 out of 12
Pollen 1.50 out of 12
Air Quality Not available.
Flu Activity Sporadic
METAR KCVG 211652Z 33018G22KT 10SM BKN045 OVC050 13/02 A3004 RMK AO2 SLP169 BINOVC T01280022

More Conditions Fewer Conditions

Pressure 30.03 in
Visibility 10.0 miles
Clouds Mostly Cloudy 4500 ft
Overcast 5000 ft
Dew Point 45 °F
Humidity 69%
Rainfall 0.00 in
Snow Depth Not available.
UV 2 out of 12
Pollen 1.50 out of 12
Air Quality Not available.
Flu Activity Sporadic
METAR KCVG 211652Z 33018G22KT 10SM BKN045 OVC050 13/02 A3004 RMK AO2 SLP169 BINOVC T01280022

More Conditions Fewer Conditions

10-Day Weather Forecast

Almanac

Astronomy

Oct. 21, 2014 Rise Set
Actual Time 7:56 AM EDT 6:53 PM EDT
Civil Twilight 7:29 AM EDT 7:21 PM EDT
Nautical Twilight 6:58 AM EDT 7:52 PM EDT
Astronomical Twilight 6:27 AM EDT 8:23 PM EDT
Moon 5:41 AM EDT 5:46 PM EDT
Length of Visible Light 11h 51m
Length of Day
10h 57m
Tomorrow will be 2m 23s shorter.
Waning Crescent, 5% of the Moon is Illuminated
Today
Waning Crescent
Oct 23
New
Oct 30
First Quarter
Nov 6
Full
Nov 14
Last Quarter

Today's Extremes

State Highs State Lows

Community

WunderPhotos

Upload Photos

1,763,713 photos uploaded!

Nearby

Snow Depth

Station Depth Elevation
No new snow has been reported.

Earthquake Activity

City Distance Mag. Time & Date
No recent earthquake activity has been reported nearby.
Minimum magnitude displayed is 2.5.

Coastal Water Temperatures

Place Temperature
No Stations Reporting

Nearby Weather Stations